Latest Weather Observations for Gunnedah Airport

IDN60801

Issued at 2:02 pm EST Sunday 5 July 2015 (issued every 30 minutes, with the page automatically refreshed every 10 minutes)

About weather observations | Map of weather stations | Latest weather observations for NSW | Other Formats
Station Details ID: 055202 Name: GUNNEDAH AIRPORT AWS Lat: -30.95 Lon: 150.25 Height: 262.57 m
Data from the previous 72 hours. | See also: Recent months at Gunnedah Airport
Date/Time
EST
Temp
°C
App
Temp
°C
Dew
Point
Rel
Hum
%
Delta-T
°C
Wind Press
QNH
hPa
Press
MSL
hPa
Rain
since 9 am
mm
Dir
 
Spd
km/h
Gust
km/h
Spd
kts
Gust
kts
05/02:00pm 15.9 12.6 6.3 53 4.7 NW 13 20 7 11 1020.2 1020.5 0.0
05/01:30pm 16.0 12.8 6.7 54 4.6 NW 13 19 7 10 1020.4 1020.7 0.0
05/01:00pm 15.7 12.7 7.7 59 4.0 NW 13 17 7 9 1020.8 1021.1 0.0
05/12:30pm 14.9 12.0 6.5 57 4.1 NW 11 15 6 8 1021.4 1021.8 0.0
05/12:00pm 14.6 12.7 7.6 63 3.5 NNW 7 13 4 7 1021.7 1022.1 0.0
05/11:30am 13.7 12.5 6.3 61 3.6 N 2 7 1 4 1022.4 1022.7 0.0
05/11:00am 12.5 10.5 6.3 66 3.0 NE 6 9 3 5 1022.7 1023.0 0.0
05/10:30am 11.0 8.3 5.7 70 2.5 ENE 9 11 5 6 1023.0 1023.3 0.0
05/10:00am 8.9 6.5 5.1 77 1.7 SE 7 11 4 6 1023.2 1023.5 0.0
05/09:30am 7.3 4.4 4.4 82 1.3 SE 9 11 5 6 1023.1 1023.4 0.0
05/08:30am 5.7 3.2 4.5 92 0.5 SE 7 9 4 5 1022.8 1023.1 0.0
05/08:00am 4.2 1.0 2.9 91 0.5 SSE 9 11 5 6 1022.7 1023.0 0.0
05/07:30am 2.4 -1.1 1.2 92 0.5 SE 9 11 5 6 1022.6 1022.9 0.0
05/07:00am 1.9 -1.7 0.7 92 0.5 ESE 9 11 5 6 1022.5 1022.8 0.0
05/06:30am 1.6 -1.5 0.3 91 0.5 SSE 6 7 3 4 1022.1 1022.5 0.0
05/06:00am 1.4 -0.6 -0.4 88 0.7 CALM 0 0 0 0 1021.9 1022.3 0.0
05/05:30am 2.5 -1.0 1.3 92 0.5 SSE 9 11 5 6 1021.7 1022.1 0.0
05/05:00am 2.3 -1.6 1.1 92 0.5 S 11 13 6 7 1021.5 1021.9 0.0
05/04:30am 2.4 0.2 1.2 92 0.5 SE 2 6 1 3 1021.5 1021.9 0.0
05/04:00am 2.4 -0.7 1.2 92 0.5 SE 7 7 4 4 1021.6 1022.0 0.0
05/03:30am 3.4 0.5 2.4 93 0.4 SE 7 9 4 5 1021.7 1022.1 0.0
05/03:00am 3.5 1.9 2.3 92 0.5 CALM 0 0 0 0 1021.8 1022.2 0.0
05/02:30am 3.7 2.1 2.5 92 0.5 CALM 0 0 0 0 1022.0 1022.4 0.0
05/02:00am 4.2 2.7 3.2 93 0.4 CALM 0 0 0 0 1022.4 1022.7 0.0
05/01:30am 3.3 1.6 2.0 91 0.5 CALM 0 0 0 0 1022.5 1022.8 0.0
05/01:00am 3.4 1.7 2.1 91 0.5 CALM 0 0 0 0 1022.3 1022.6 0.0
05/12:30am 4.7 3.3 3.4 91 0.5 CALM 0 0 0 0 1022.5 1022.8 0.0
05/12:00am 4.5 2.9 2.7 88 0.7 CALM 0 0 0 0 1022.4 1022.7 0.0
 
Date/Time
EST
Temp
°C
App
Temp
°C
Dew
Point
Rel
Hum
%
Delta-T
°C
Wind Press
QNH
hPa
Press
MSL
hPa
Rain
since 9 am
mm
Dir
 
Spd
km/h
Gust
km/h
Spd
kts
Gust
kts
04/11:30pm 6.0 4.7 4.2 88 0.8 CALM 0 0 0 0 1022.4 1022.7 0.0
04/11:00pm 5.6 4.2 3.4 86 0.9 CALM 0 0 0 0 1022.4 1022.7 0.0
04/10:30pm 6.3 3.7 4.0 85 1.0 ENE 7 9 4 5 1022.3 1022.6 0.0
04/10:00pm 6.3 3.7 4.1 86 1.0 ENE 7 11 4 6 1022.3 1022.6 0.0
04/09:30pm 6.6 4.3 3.0 78 1.5 SW 4 7 2 4 1022.4 1022.7 0.0
04/09:00pm 7.6 5.2 4.2 79 1.5 S 6 7 3 4 1022.5 1022.8 0.0
04/08:30pm 7.1 5.8 4.2 82 1.3 CALM 0 0 0 0 1022.4 1022.7 0.0
04/08:00pm 7.8 5.4 5.1 83 1.2 ENE 7 9 4 5 1022.4 1022.7 0.0
04/07:30pm 8.2 7.1 5.0 80 1.4 CALM 0 0 0 0 1022.4 1022.7 0.0
04/07:00pm 8.8 6.6 5.2 78 1.6 S 6 9 3 5 1022.3 1022.6 0.0
04/06:30pm 9.5 7.1 5.1 74 2.0 S 7 9 4 5 1021.9 1022.3 0.0
04/06:00pm 10.2 9.1 5.0 70 2.4 CALM 0 0 0 0 1021.7 1022.1 0.0
04/05:30pm 10.3 8.4 4.9 69 2.5 NNW 4 6 2 3 1021.5 1021.9 0.0
04/05:00pm 12.0 9.8 5.2 63 3.2 NNW 6 7 3 4 1021.6 1022.0 0.0
04/04:30pm 13.6 11.1 5.0 56 4.1 NW 7 9 4 5 1021.5 1021.9 0.0
04/04:00pm 15.1 12.8 5.6 53 4.6 NW 7 13 4 7 1021.5 1021.9 0.0
04/03:30pm 15.7 12.9 5.3 50 5.0 NW 9 13 5 7 1021.6 1022.0 0.0
04/03:00pm 16.1 13.1 6.0 51 4.9 NNW 11 17 6 9 1021.6 1022.0 0.0
04/02:30pm 15.4 13.1 5.6 52 4.7 NNW 7 11 4 6 1021.7 1022.1 0.0
04/02:00pm 14.8 11.3 5.6 54 4.4 NNW 13 17 7 9 1022.0 1022.4 0.0
04/01:30pm 14.9 11.6 6.2 56 4.2 NW 13 19 7 10 1022.3 1022.6 0.0
04/01:00pm 14.5 11.7 5.3 54 4.4 NNW 9 15 5 8 1022.8 1023.1 0.0
04/12:30pm 14.2 11.8 7.0 62 3.6 NW 9 13 5 7 1023.4 1023.7 0.0
04/12:00pm 13.8 11.7 5.9 59 3.8 NNW 6 11 3 6 1024.0 1024.3 0.0
04/11:30am 12.5 11.3 6.3 66 3.0 WNW 2 9 1 5 1024.6 1025.0 0.0
04/11:00am 11.3 10.2 5.2 66 2.8 CALM 0 0 0 0 1025.2 1025.6 0.0
04/10:30am 10.4 9.3 5.0 69 2.5 CALM 0 0 0 0 1025.2 1025.6 0.0
04/10:00am 8.5 7.2 4.3 75 1.9 CALM 0 0 0 0 1025.3 1025.7 0.0
04/09:30am 7.0 5.8 4.5 84 1.1 CALM 0 0 0 0 1025.3 1025.7 0.0
04/09:00am 5.2 3.9 3.9 91 0.6 CALM 0 0 0 0 1025.1 1025.5 0.0
04/08:30am 2.5 0.8 1.6 94 0.4 CALM 0 0 0 0 1024.9 1025.3 0.0
04/08:00am 0.0 -2.1 -0.8 94 0.3 CALM 0 0 0 0 1024.8 1025.2 0.0
04/07:30am -1.2 -4.6 -2.0 94 0.2 SE 6 9 3 5 1024.7 1025.1 0.0
04/07:00am -0.7 -5.0 -1.5 94 0.2 SE 11 11 6 6 1024.5 1024.9 0.0
04/06:30am -0.1 -3.9 -0.9 94 0.3 ESE 9 13 5 7 1024.3 1024.6 0.0
04/06:00am -0.6 -4.1 -1.4 94 0.3 ESE 7 9 4 5 1024.3 1024.6 0.0
04/05:30am 1.4 -2.2 0.5 94 0.3 SE 9 13 5 7 1024.0 1024.3 0.0
04/05:00am -0.3 -2.4 -1.1 94 0.3 CALM 0 0 0 0 1023.8 1024.1 0.0
04/04:30am -0.2 -2.3 -1.0 94 0.3 CALM 0 0 0 0 1023.7 1024.0 0.0
04/04:00am -0.4 -2.6 -1.2 94 0.3 CALM 0 0 0 0 1023.9 1024.2 0.0
04/03:30am -1.7 -4.0 -2.7 93 0.3 CALM 0 0 0 0 1023.7 1024.0 0.0
04/03:00am -0.1 -2.2 -0.9 94 0.3 CALM 0 0 0 0 1023.7 1024.0 0.0
04/02:30am -0.3 -2.4 -1.1 94 0.3 CALM 0 0 0 0 1023.5 1023.8 0.0
04/02:00am -0.2 -2.3 -1.0 94 0.3 CALM 0 0 0 0 1024.0 1024.3 0.0
04/01:30am 0.0 -2.1 -0.8 94 0.3 CALM 0 0 0 0 1023.9 1024.2 0.0
04/01:00am 1.1 -0.9 0.2 94 0.3 CALM 0 0 0 0 1024.4 1024.8 0.0
04/12:30am 0.7 -1.3 -0.2 94 0.3 CALM 0 0 0 0 1024.7 1025.1 0.0
04/12:00am 0.8 -1.2 -0.2 93 0.4 CALM 0 0 0 0 1025.0 1025.4 0.0
 
Date/Time
EST
Temp
°C
App
Temp
°C
Dew
Point
Rel
Hum
%
Delta-T
°C
Wind Press
QNH
hPa
Press
MSL
hPa
Rain
since 9 am
mm
Dir
 
Spd
km/h
Gust
km/h
Spd
kts
Gust
kts
03/11:30pm 0.5 -1.6 -0.6 92 0.4 CALM 0 0 0 0 1025.1 1025.5 0.0
03/11:00pm 0.1 -2.1 -1.2 91 0.5 CALM 0 0 0 0 1025.1 1025.5 0.0
03/10:30pm 2.0 0.1 0.8 92 0.5 CALM 0 0 0 0 1025.0 1025.4 0.0
03/10:00pm 1.6 -0.4 0.1 90 0.6 CALM 0 0 0 0 1025.1 1025.5 0.0
03/09:30pm 3.8 2.2 2.6 92 0.5 CALM 0 0 0 0 1025.1 1025.5 0.0
03/09:00pm 2.9 1.1 1.3 89 0.6 CALM 0 0 0 0 1024.9 1025.3 0.0
03/08:30pm 3.6 1.9 2.1 90 0.6 CALM 0 0 0 0 1024.7 1025.1 0.0
03/08:00pm 3.6 1.9 1.8 88 0.7 CALM 0 0 0 0 1024.7 1025.1 0.0
03/07:30pm 4.5 2.8 2.0 84 1.0 CALM 0 0 0 0 1024.8 1025.2 0.0
03/07:00pm 5.4 2.4 1.9 78 1.4 S 7 9 4 5 1024.7 1025.1 0.0
03/06:30pm 7.4 4.3 3.5 76 1.7 SSW 9 11 5 6 1024.6 1025.0 0.0
03/06:00pm 8.0 4.9 3.8 75 1.8 SSW 9 11 5 6 1024.5 1024.9 0.0
03/05:30pm 8.7 6.0 2.7 66 2.6 SSW 6 7 3 4 1024.2 1024.5 0.0
03/05:00pm 11.2 8.7 3.5 59 3.4 SSW 6 7 3 4 1024.0 1024.3 0.0
03/04:30pm 12.8 9.6 3.2 52 4.3 S 9 11 5 6 1024.1 1024.4 0.0
03/04:00pm 13.8 11.0 3.0 48 4.9 SSW 7 13 4 7 1024.0 1024.3 0.0
03/03:30pm 13.9 11.0 2.8 47 5.0 SSE 7 11 4 6 1024.0 1024.3 0.0
03/03:00pm 14.1 10.8 2.7 46 5.1 SSE 9 15 5 8 1024.0 1024.3 0.0
03/02:30pm 13.9 10.3 3.1 48 4.9 SSE 11 15 6 8 1024.1 1024.4 0.0
03/02:00pm 13.6 10.7 2.8 48 4.8 ESE 7 15 4 8 1024.4 1024.8 0.0
03/01:30pm 13.1 10.0 1.5 45 5.0 SE 7 24 4 13 1024.6 1025.0 0.0
03/01:00pm 13.2 10.4 2.1 47 4.9 NNE 6 11 3 6 1025.0 1025.4 0.0
03/12:30pm 12.3 8.8 1.3 47 4.7 SE 9 17 5 9 1025.3 1025.7 0.0
03/12:00pm 11.9 8.7 1.0 47 4.6 SE 7 13 4 7 1025.6 1026.0 0.0
03/11:30am 11.2 6.9 1.2 50 4.2 SE 13 17 7 9 1026.3 1026.6 0.0
03/11:00am 10.6 6.2 0.6 50 4.1 SE 13 17 7 9 1026.6 1026.9 0.0
03/10:30am 9.6 6.3 2.2 60 3.2 ESE 9 15 5 8 1027.0 1027.3 0.0
03/10:00am 7.8 6.2 2.3 68 2.3 CALM 0 0 0 0 1027.3 1027.6 0.0
03/09:30am 6.3 4.7 2.4 76 1.6 CALM 0 0 0 0 1027.1 1027.4 0.0
03/09:00am 4.4 2.8 2.6 88 0.7 CALM 0 0 0 0 1027.0 1027.3 0.0
03/08:30am 2.2 0.4 1.3 94 0.3 CALM 0 0 0 0 1026.7 1027.0 0.0
03/08:00am -0.7 -3.3 -1.7 93 0.3 NNW 2 6 1 3 1026.3 1026.6 0.0
03/07:30am -2.1 -4.9 -2.9 94 0.2 NW 2 7 1 4 1025.7 1026.1 0.0
03/07:00am -2.4 -6.2 -3.4 93 0.2 SE 7 11 4 6 1025.3 1025.7 0.0
03/06:30am -1.7 -4.0 -2.5 94 0.2 CALM 0 0 0 0 1024.9 1025.3 0.0
03/06:00am -2.2 -6.3 -3.2 93 0.2 NE 9 13 5 7 1024.5 1024.9 0.0
03/05:30am -2.6 -6.4 -3.7 92 0.2 NE 7 13 4 7 1024.1 1024.4 0.0
03/05:00am -0.9 -3.1 -1.9 93 0.3 CALM 0 0 0 0 1023.9 1024.2 0.0
03/04:30am -0.8 -3.0 -1.9 92 0.3 CALM 0 0 0 0 1023.6 1023.9 0.0
03/04:00am 0.1 -2.1 -1.2 91 0.5 CALM 0 0 0 0 1023.4 1023.7 0.0
03/03:30am 0.1 -2.1 -1.3 90 0.5 CALM 0 0 0 0 1023.2 1023.5 0.0
03/03:00am 0.4 -1.7 -1.0 90 0.5 CALM 0 0 0 0 1023.2 1023.5 0.0
03/02:30am 0.9 -3.0 -1.3 85 0.8 SSE 9 11 5 6 1023.5 1023.8 0.0
03/02:00am 2.0 -1.8 -1.1 80 1.1 SSE 9 13 5 7 1023.6 1023.9 0.0
03/01:30am 1.8 -2.2 0.3 90 0.6 N 11 17 6 9 1023.6 1023.9 0.0
03/01:00am 2.0 -1.2 0.5 90 0.6 NNW 7 9 4 5 1023.5 1023.8 0.0
03/12:30am 4.3 -0.3 1.3 81 1.2 SW 15 17 8 9 1023.5 1023.8 0.0
03/12:00am 5.0 1.7 2.5 84 1.0 W 9 9 5 5 1024.1 1024.4 0.0
 
Date/Time
EST
Temp
°C
App
Temp
°C
Dew
Point
Rel
Hum
%
Delta-T
°C
Wind Press
QNH
hPa
Press
MSL
hPa
Rain
since 9 am
mm
Dir
 
Spd
km/h
Gust
km/h
Spd
kts
Gust
kts
02/11:30pm 4.6 0.8 2.0 83 1.1 W 11 15 6 8 1024.3 1024.6 0.0
02/11:00pm 5.1 0.3 2.8 85 0.9 WSW 17 20 9 11 1024.5 1024.9 0.0
02/10:30pm 3.4 -0.1 1.3 86 0.8 W 9 11 5 6 1024.6 1025.0 0.0
02/10:00pm 3.3 -0.8 -0.2 78 1.3 W 11 15 6 8 1024.5 1024.9 0.0
02/09:30pm 5.4 2.4 2.1 79 1.4 NW 7 13 4 7 1024.6 1025.0 0.0
02/09:00pm 6.5 2.9 3.1 79 1.4 W 11 13 6 7 1024.8 1025.2 0.0
02/08:30pm 7.1 3.7 3.9 80 1.4 W 11 13 6 7 1024.5 1024.9 0.0
02/08:00pm 6.5 2.9 2.9 78 1.5 W 11 13 6 7 1024.4 1024.8 0.0
02/07:30pm 6.2 3.5 2.5 77 1.5 W 6 7 3 4 1024.4 1024.8 0.0
02/07:00pm 6.4 3.1 2.3 75 1.7 WNW 9 11 5 6 1023.9 1024.2 0.0
02/06:30pm 8.0 4.7 2.5 68 2.3 WSW 9 11 5 6 1023.8 1024.1 0.0
02/06:00pm 9.5 6.8 2.6 62 3.0 SW 6 9 3 5 1023.2 1023.5 0.0
02/05:30pm 10.5 6.9 3.1 60 3.3 WSW 11 15 6 8 1023.3 1023.6 0.0
02/05:00pm 11.1 6.7 2.9 57 3.6 WSW 15 19 8 10 1022.9 1023.2 0.0
02/04:30pm 11.7 6.9 2.5 53 4.0 WSW 17 24 9 13 1022.1 1022.5 0.0
02/04:00pm 12.7 7.9 2.6 50 4.5 WSW 17 20 9 11 1021.7 1022.1 0.0
02/03:30pm 13.2 8.5 3.0 50 4.6 WSW 17 22 9 12 1021.6 1022.0 0.0
02/03:00pm 13.3 8.0 2.8 49 4.7 WSW 20 32 11 17 1021.8 1022.2 0.0
02/02:30pm 12.9 8.2 3.0 51 4.4 W 17 22 9 12 1021.6 1022.0 0.0

Other Formats:

Comma delimited format used in spreadsheet applications
http://www.bom.gov.au/fwo/IDN60801/IDN60801.95740.axf

JavaScript Object Notation format (JSON) in row-major order
http://www.bom.gov.au/fwo/IDN60801/IDN60801.95740.json